Time;durP1;ratioP1;P1;durP2;ratioP2;P2;SDS_P1;SDS_P2;PMS_P1;PMS_P2;Temp;Humidity;BMP_temperature;BMP_pressure;BME280_temperature;BME280_humidity;BME280_pressure;Samples;Min_cycle;Max_cycle;Signal;HPM_P1;HPM_P2
2023/12/15 00:00:00;;;;;;;8.80;4.53;;;4.50;99.90;4.20;101339.00;;;;4943531;28;109049;-70
2023/12/15 00:02:25;;;;;;;2.57;2.30;;;4.40;99.90;4.20;101343.00;;;;4949679;28;94047;-71
2023/12/15 00:04:51;;;;;;;6.97;3.73;;;4.40;99.90;4.20;101344.00;;;;4944942;28;108570;-71
2023/12/15 00:07:17;;;;;;;4.97;4.03;;;5.10;99.90;4.20;101348.00;;;;4950301;28;114702;-71
2023/12/15 00:09:42;;;;;;;5.33;3.70;;;4.40;99.90;4.10;101343.00;;;;4941830;28;108607;-70
2023/12/15 00:12:08;;;;;;;5.53;4.27;;;4.30;99.90;4.10;101360.00;;;;4945682;28;109680;-70
2023/12/15 00:14:34;;;;;;;6.17;4.63;;;4.40;99.90;4.10;101357.00;;;;4954344;28;109819;-73
2023/12/15 00:16:59;;;;;;;9.57;5.93;;;4.30;99.90;4.10;101358.00;;;;4948883;28;121845;-73
2023/12/15 00:19:25;;;;;;;6.93;4.07;;;4.30;99.90;4.10;101368.00;;;;4951700;28;104453;-72
2023/12/15 00:21:51;;;;;;;6.60;4.73;;;4.30;99.90;4.10;101374.00;;;;4946217;28;93217;-71
2023/12/15 00:24:16;;;;;;;8.30;5.03;;;4.30;99.90;4.10;101384.00;;;;4944810;28;109125;-72
2023/12/15 00:26:42;;;;;;;8.70;5.77;;;4.30;99.90;4.10;101381.00;;;;4948816;28;123729;-72
2023/12/15 00:29:11;;;;;;;7.43;5.70;;;4.20;99.90;4.10;101382.00;;;;4948546;28;102716;-71
2023/12/15 00:31:36;;;;;;;9.67;4.63;;;4.30;99.90;4.10;101386.00;;;;4949406;28;110753;-72
2023/12/15 00:34:02;;;;;;;8.10;5.73;;;4.30;99.90;4.10;101401.00;;;;4945792;28;108251;-71
2023/12/15 00:36:28;;;;;;;7.67;5.30;;;4.30;99.90;4.10;101396.00;;;;4952673;28;94087;-71
2023/12/15 00:38:54;;;;;;;10.50;6.30;;;4.40;99.90;4.10;101410.00;;;;4954106;28;120128;-71
2023/12/15 00:41:19;;;;;;;10.70;5.77;;;4.30;99.90;4.00;101398.00;;;;4948878;28;110588;-71
2023/12/15 00:43:45;;;;;;;11.40;5.93;;;4.30;99.90;4.00;101403.00;;;;4950858;28;108749;-71
2023/12/15 00:46:11;;;;;;;7.47;5.57;;;4.30;99.90;4.10;101405.00;;;;4951803;28;117532;-72
2023/12/15 00:48:36;;;;;;;10.87;5.97;;;4.30;99.90;4.10;101411.00;;;;4951430;28;120421;-72
2023/12/15 00:51:02;;;;;;;10.60;6.43;;;4.30;99.90;4.10;101418.00;;;;4951723;28;110028;-71
2023/12/15 00:53:32;;;;;;;9.30;5.93;;;4.30;99.90;4.10;101424.00;;;;4948370;28;93097;-71
2023/12/15 00:56:01;;;;;;;13.33;6.57;;;4.40;99.90;4.10;101437.00;;;;4946614;28;93710;-71
2023/12/15 00:58:29;;;;;;;9.00;5.53;;;4.40;99.90;4.20;101437.00;;;;4949675;28;100135;-71
2023/12/15 01:00:55;;;;;;;9.43;6.37;;;4.90;99.90;4.20;101442.00;;;;4955884;28;92839;-71
2023/12/15 01:03:21;;;;;;;8.97;5.87;;;4.40;99.90;4.20;101453.00;;;;4952454;28;109075;-71
2023/12/15 01:05:46;;;;;;;9.43;5.27;;;4.40;99.90;4.20;101453.00;;;;4957802;28;122242;-72
2023/12/15 01:08:12;;;;;;;12.40;5.53;;;4.80;99.90;4.20;101456.00;;;;4938069;28;122810;-73
2023/12/15 01:10:37;;;;;;;10.73;6.50;;;4.40;99.90;4.20;101461.00;;;;4949756;28;110642;-73
2023/12/15 01:13:03;;;;;;;8.50;6.73;;;4.60;99.90;4.20;101462.00;;;;4953104;28;109249;-71
2023/12/15 01:15:30;;;;;;;9.97;7.27;;;4.30;99.90;4.20;101465.00;;;;4948879;28;123828;-71
2023/12/15 01:17:56;;;;;;;7.97;5.23;;;4.50;99.90;4.20;101473.00;;;;4945344;28;124489;-72
2023/12/15 01:20:21;;;;;;;9.67;6.83;;;4.40;99.90;4.20;101473.00;;;;4949441;28;110543;-71
2023/12/15 01:22:47;;;;;;;9.47;7.13;;;4.40;99.90;4.20;101485.00;;;;4956549;28;93014;-71
2023/12/15 01:25:13;;;;;;;11.60;7.03;;;5.20;99.90;4.10;101481.00;;;;4950032;28;122047;-72
2023/12/15 01:27:39;;;;;;;9.80;7.53;;;4.30;99.90;4.10;101488.00;;;;4947812;28;122935;-72
2023/12/15 01:30:06;;;;;;;8.43;7.23;;;4.40;99.90;4.10;101497.00;;;;4952072;28;93093;-72
2023/12/15 01:32:31;;;;;;;10.27;7.47;;;4.40;99.90;4.10;101493.00;;;;4954234;28;92358;-71
2023/12/15 01:34:57;;;;;;;12.73;7.03;;;4.30;99.90;4.10;101487.00;;;;4949584;28;123187;-73
2023/12/15 01:37:23;;;;;;;13.03;7.70;;;4.30;99.90;4.10;101492.00;;;;4946283;28;120158;-72
2023/12/15 01:39:49;;;;;;;13.07;9.00;;;4.30;99.90;4.10;101491.00;;;;4949263;28;93694;-72
2023/12/15 01:42:15;;;;;;;13.60;8.87;;;4.30;99.90;4.10;101491.00;;;;4947792;28;93020;-72
2023/12/15 01:44:41;;;;;;;17.43;8.97;;;4.30;99.90;4.10;101500.00;;;;4945771;28;114329;-71
2023/12/15 01:47:10;;;;;;;14.37;8.90;;;4.30;99.90;4.10;101503.00;;;;4949090;28;104030;-72
2023/12/15 01:49:36;;;;;;;13.00;9.63;;;4.50;99.90;4.10;101501.00;;;;4953708;28;93112;-72
2023/12/15 01:52:02;;;;;;;14.23;9.30;;;4.30;99.90;4.10;101510.00;;;;4930111;28;107714;-72
2023/12/15 01:54:27;;;;;;;12.07;7.93;;;4.30;99.90;4.10;101508.00;;;;4944670;28;111207;-72
2023/12/15 01:56:53;;;;;;;15.50;10.13;;;4.30;99.90;4.10;101518.00;;;;4947951;28;123220;-72
2023/12/15 01:59:19;;;;;;;13.50;8.97;;;4.30;99.90;4.10;101518.00;;;;4947462;28;110524;-72
2023/12/15 02:01:44;;;;;;;11.03;8.23;;;4.30;99.90;4.10;101526.00;;;;4948222;28;108817;-72
2023/12/15 02:04:10;;;;;;;15.37;9.17;;;4.30;99.90;4.10;101537.00;;;;4948394;28;121539;-72
2023/12/15 02:06:35;;;;;;;15.50;10.10;;;4.20;99.90;4.10;101539.00;;;;4948688;28;122607;-72
2023/12/15 02:09:01;;;;;;;15.07;8.70;;;4.30;99.90;4.10;101542.00;;;;4947349;28;111119;-72
2023/12/15 02:11:27;;;;;;;14.60;8.50;;;4.30;99.90;4.10;101545.00;;;;4951138;28;92836;-73
2023/12/15 02:13:53;;;;;;;21.60;9.30;;;4.40;99.90;4.10;101544.00;;;;4951938;28;93064;-72
2023/12/15 02:16:18;;;;;;;12.00;7.53;;;4.30;99.90;4.10;101548.00;;;;4945757;28;119047;-72
2023/12/15 02:18:44;;;;;;;17.23;9.20;;;4.30;99.90;4.10;101554.00;;;;4954332;28;93701;-73
2023/12/15 02:21:10;;;;;;;13.53;9.17;;;4.40;99.90;4.10;101563.00;;;;4952733;28;99575;-72
2023/12/15 02:23:37;;;;;;;12.50;7.97;;;5.00;99.90;4.10;101556.00;;;;4948319;28;122675;-72
2023/12/15 02:26:03;;;;;;;14.30;8.33;;;4.40;99.90;4.10;101557.00;;;;4948381;28;93955;-72
2023/12/15 02:28:29;;;;;;;13.13;9.30;;;4.40;99.90;4.10;101560.00;;;;4950775;28;98515;-73
2023/12/15 02:30:55;;;;;;;17.30;8.73;;;5.00;99.90;4.10;101555.00;;;;4947180;28;106679;-72
2023/12/15 02:33:20;;;;;;;13.47;8.37;;;4.40;99.90;4.20;101550.00;;;;4944796;28;120770;-72
2023/12/15 02:35:47;;;;;;;12.77;8.60;;;4.40;99.90;4.10;101551.00;;;;4952392;28;122908;-72
2023/12/15 02:38:18;;;;;;;12.33;9.03;;;4.50;99.90;4.10;101550.00;;;;4946846;28;93189;-72
2023/12/15 02:40:44;;;;;;;12.23;8.40;;;4.40;99.90;4.10;101556.00;;;;4951575;28;94201;-72
2023/12/15 02:43:13;;;;;;;11.20;7.77;;;4.40;99.90;4.10;101553.00;;;;4946064;28;93885;-73
2023/12/15 02:45:39;;;;;;;11.83;8.23;;;4.30;99.90;4.10;101557.00;;;;4950777;28;101789;-72
2023/12/15 02:48:05;;;;;;;15.73;8.37;;;4.90;99.90;4.10;101573.00;;;;4955564;28;109638;-72
2023/12/15 02:50:30;;;;;;;14.40;7.83;;;4.30;99.90;4.10;101580.00;;;;4943324;28;93136;-72
2023/12/15 02:52:56;;;;;;;14.33;8.40;;;4.30;99.90;4.10;101569.00;;;;4947561;28;122878;-72
2023/12/15 02:55:21;;;;;;;11.97;7.70;;;4.30;99.90;4.10;101576.00;;;;4947316;28;125223;-72
2023/12/15 02:57:47;;;;;;;11.80;7.30;;;4.30;99.90;4.10;101581.00;;;;4950348;28;110975;-73
2023/12/15 03:00:14;;;;;;;15.50;9.10;;;4.70;99.90;4.10;101598.00;;;;4954682;28;92798;-73
2023/12/15 03:02:40;;;;;;;13.23;7.80;;;4.30;99.90;4.10;101593.00;;;;4954623;28;93094;-74
2023/12/15 03:05:06;;;;;;;13.07;7.97;;;4.30;99.90;4.10;101585.00;;;;4945929;28;120636;-72
2023/12/15 03:07:32;;;;;;;15.60;9.27;;;4.30;99.90;4.00;101587.00;;;;4947185;28;100987;-72
2023/12/15 03:09:57;;;;;;;14.00;9.07;;;4.30;99.90;4.00;101600.00;;;;4951722;28;106322;-72
2023/12/15 03:12:23;;;;;;;12.70;8.00;;;4.90;99.90;4.00;101608.00;;;;4949523;28;123044;-72
2023/12/15 03:14:49;;;;;;;8.90;6.77;;;4.30;99.90;4.00;101612.00;;;;4946906;28;123154;-73
2023/12/15 03:17:16;;;;;;;15.83;8.57;;;4.30;99.90;4.00;101622.00;;;;4932553;28;112525;-73
2023/12/15 03:19:42;;;;;;;10.10;7.33;;;4.30;99.90;4.00;101614.00;;;;4949542;28;92794;-73
2023/12/15 03:22:08;;;;;;;11.57;8.13;;;4.20;99.90;4.00;101618.00;;;;4950396;28;99293;-73
2023/12/15 03:24:34;;;;;;;10.80;6.43;;;4.30;99.90;4.00;101618.00;;;;4930911;28;122475;-72
2023/12/15 03:26:59;;;;;;;12.50;7.07;;;5.00;99.90;4.00;101615.00;;;;4951844;28;99400;-73
2023/12/15 03:29:25;;;;;;;13.57;8.20;;;3.80;99.90;4.00;101638.00;;;;4945691;28;107412;-73
2023/12/15 03:31:51;;;;;;;12.67;8.23;;;4.20;99.90;4.00;101630.00;;;;4950141;28;93274;-72
2023/12/15 03:34:16;;;;;;;9.60;7.10;;;5.00;99.90;4.00;101630.00;;;;4946932;28;120667;-72
2023/12/15 03:36:42;;;;;;;11.33;7.53;;;4.20;99.90;3.90;101625.00;;;;4954014;28;92917;-73
2023/12/15 03:39:09;;;;;;;11.47;8.53;;;4.40;99.90;3.90;101633.00;;;;4950412;28;108492;-73
2023/12/15 03:41:35;;;;;;;16.87;8.97;;;4.10;99.90;3.90;101634.00;;;;4950077;28;93923;-73
2023/12/15 03:44:00;;;;;;;11.50;7.77;;;4.30;99.90;3.90;101635.00;;;;4948986;28;121319;-72
2023/12/15 03:46:26;;;;;;;11.93;7.23;;;4.70;99.90;3.80;101637.00;;;;4944044;28;93255;-72
2023/12/15 03:48:52;;;;;;;12.70;8.03;;;4.20;99.90;3.80;101642.00;;;;4948461;28;92925;-73
2023/12/15 03:51:45;;;;;;;12.23;7.33;;;4.00;99.90;3.80;101646.00;;;;4951681;28;121990;-72
2023/12/15 03:54:10;;;;;;;10.67;6.40;;;4.00;99.90;3.80;101644.00;;;;4947078;28;121611;-72
2023/12/15 03:56:36;;;;;;;13.70;8.33;;;4.00;99.90;3.80;101649.00;;;;4950479;28;110286;-72
2023/12/15 03:59:02;;;;;;;10.83;7.33;;;4.00;99.90;3.70;101656.00;;;;4954462;28;100836;-73
2023/12/15 04:01:29;;;;;;;9.57;6.63;;;4.80;99.90;3.70;101651.00;;;;4948602;28;106092;-72
2023/12/15 04:03:57;;;;;;;12.23;7.30;;;4.00;99.90;3.70;101662.00;;;;4949662;28;95175;-72
2023/12/15 04:06:22;;;;;;;6.90;6.07;;;4.00;99.90;3.70;101661.00;;;;4948696;28;94255;-73
2023/12/15 04:08:48;;;;;;;11.10;6.70;;;4.00;99.90;3.70;101673.00;;;;4955157;28;106432;-73
2023/12/15 04:11:16;;;;;;;8.70;6.27;;;3.90;99.90;3.70;101670.00;;;;4955030;28;93949;-73
2023/12/15 04:13:42;;;;;;;11.60;6.60;;;3.80;99.90;3.60;101669.00;;;;4947099;28;92881;-72
2023/12/15 04:16:08;;;;;;;11.43;7.17;;;3.90;99.90;3.60;101665.00;;;;4948979;28;93209;-72
2023/12/15 04:18:34;;;;;;;10.33;5.97;;;3.90;99.90;3.60;101666.00;;;;4956536;28;94131;-72
2023/12/15 04:21:02;;;;;;;8.90;6.93;;;4.30;99.90;3.60;101669.00;;;;4952226;28;123642;-71
2023/12/15 04:23:31;;;;;;;9.53;6.70;;;3.80;99.90;3.60;101674.00;;;;4954365;28;92157;-71
2023/12/15 04:25:58;;;;;;;13.17;7.70;;;3.90;99.90;3.60;101669.00;;;;4949803;28;93873;-71
2023/12/15 04:28:27;;;;;;;8.50;5.77;;;3.90;99.90;3.60;101673.00;;;;4955970;28;92997;-71
2023/12/15 04:30:53;;;;;;;12.47;7.67;;;3.80;99.90;3.60;101686.00;;;;4958027;28;94678;-71
2023/12/15 04:33:18;;;;;;;13.47;7.60;;;3.80;99.90;3.60;101680.00;;;;4953405;28;94425;-71
2023/12/15 04:35:44;;;;;;;13.77;8.63;;;3.80;99.90;3.60;101688.00;;;;4951592;28;102826;-71
2023/12/15 04:38:10;;;;;;;9.70;6.10;;;4.50;99.90;3.60;101683.00;;;;4951295;28;108205;-71
2023/12/15 04:40:35;;;;;;;13.57;7.77;;;3.90;99.90;3.70;101686.00;;;;4949884;28;123225;-71
2023/12/15 04:43:01;;;;;;;9.07;7.00;;;3.90;99.90;3.70;101691.00;;;;4950402;28;122569;-71
2023/12/15 04:45:27;;;;;;;10.33;6.73;;;3.90;99.90;3.70;101700.00;;;;4947725;28;110993;-71
2023/12/15 04:47:54;;;;;;;10.37;7.73;;;4.30;99.90;3.70;101697.00;;;;4940329;28;106522;-71
2023/12/15 04:50:20;;;;;;;12.63;7.10;;;3.90;99.90;3.70;101704.00;;;;4949642;28;94192;-71
2023/12/15 04:52:46;;;;;;;10.40;7.40;;;3.90;99.90;3.60;101709.00;;;;4949934;28;92914;-71
2023/12/15 04:55:12;;;;;;;12.87;7.73;;;3.90;99.90;3.70;101702.00;;;;4954564;28;93878;-72
2023/12/15 04:57:37;;;;;;;12.20;7.47;;;3.90;99.90;3.60;101706.00;;;;4941169;28;108223;-72
2023/12/15 05:00:04;;;;;;;9.50;7.03;;;3.90;99.90;3.70;101719.00;;;;4946999;28;118938;-72
2023/12/15 05:02:30;;;;;;;10.27;6.07;;;3.90;99.90;3.70;101729.00;;;;4950505;28;93878;-71
2023/12/15 05:04:55;;;;;;;9.30;6.80;;;3.80;99.90;3.70;101727.00;;;;4954369;28;110127;-71
2023/12/15 05:07:21;;;;;;;14.40;8.53;;;3.90;99.90;3.70;101729.00;;;;4951561;28;107151;-70
2023/12/15 05:09:47;;;;;;;9.90;6.17;;;3.90;99.90;3.70;101725.00;;;;4955007;28;122733;-71
2023/12/15 05:12:38;;;;;;;12.63;7.40;;;3.90;99.90;3.70;101731.00;;;;4948764;28;93163;-72
2023/12/15 05:15:05;;;;;;;11.83;7.57;;;4.00;99.90;3.70;101743.00;;;;4953303;28;109676;-71
2023/12/15 05:17:31;;;;;;;12.13;6.50;;;3.90;99.90;3.70;101740.00;;;;4951975;28;92902;-70
2023/12/15 05:19:57;;;;;;;10.03;6.00;;;3.90;99.90;3.70;101754.00;;;;4941616;28;94003;-71
2023/12/15 05:22:23;;;;;;;7.27;5.77;;;4.00;99.90;3.70;101739.00;;;;4942990;28;94950;-71
2023/12/15 05:24:51;;;;;;;11.67;6.60;;;4.50;99.90;3.70;101757.00;;;;4956046;28;110917;-69
2023/12/15 05:27:17;;;;;;;10.67;6.87;;;4.00;99.90;3.70;101755.00;;;;4952322;28;95901;-69
2023/12/15 05:29:46;;;;;;;15.27;7.07;;;4.00;99.90;3.70;101768.00;;;;4949092;28;93161;-72
2023/12/15 05:32:13;;;;;;;8.57;5.90;;;4.60;99.90;3.70;101770.00;;;;4950689;28;93767;-73
2023/12/15 05:34:38;;;;;;;8.57;6.13;;;3.90;99.90;3.70;101788.00;;;;4952712;28;92870;-72
2023/12/15 05:37:04;;;;;;;9.37;4.87;;;3.90;99.90;3.70;101786.00;;;;4946555;28;93037;-70
2023/12/15 05:39:42;;;;;;;20.33;9.37;;;3.90;99.90;3.60;101789.00;;;;4943147;28;114500;-70
2023/12/15 05:42:08;;;;;;;8.73;5.07;;;3.90;99.90;3.60;101792.00;;;;4945941;28;97019;-70
2023/12/15 05:44:33;;;;;;;8.80;4.87;;;3.10;99.90;3.60;101786.00;;;;4946994;28;94459;-70
2023/12/15 05:46:59;;;;;;;7.03;6.03;;;3.80;99.90;3.50;101785.00;;;;4947356;28;108831;-71
2023/12/15 05:49:25;;;;;;;9.80;5.57;;;3.80;99.90;3.50;101790.00;;;;4943521;28;123100;-72
2023/12/15 05:51:53;;;;;;;7.33;4.50;;;3.70;99.90;3.40;101797.00;;;;4942749;28;93216;-72
2023/12/15 05:54:19;;;;;;;6.70;4.50;;;3.70;99.90;3.40;101814.00;;;;4949804;28;110307;-73
2023/12/15 05:56:45;;;;;;;7.27;4.90;;;4.10;99.90;3.30;101813.00;;;;4947083;28;109044;-70
2023/12/15 05:59:10;;;;;;;8.17;4.67;;;3.60;99.90;3.30;101810.00;;;;4950860;28;125299;-70
2023/12/15 06:01:36;;;;;;;5.53;4.97;;;3.50;99.90;3.20;101807.00;;;;4949398;28;123319;-72
2023/12/15 06:04:02;;;;;;;13.43;5.73;;;3.50;99.90;3.10;101818.00;;;;4953539;28;109084;-70
2023/12/15 06:06:27;;;;;;;7.57;4.70;;;3.40;99.90;3.10;101812.00;;;;4948397;28;109749;-70
2023/12/15 06:08:53;;;;;;;8.10;5.60;;;3.40;99.90;2.90;101812.00;;;;4944227;28;100126;-71
2023/12/15 06:11:19;;;;;;;5.90;4.13;;;3.20;99.90;2.80;101823.00;;;;4945598;28;124409;-71
2023/12/15 06:13:44;;;;;;;11.53;6.03;;;3.20;99.90;2.70;101827.00;;;;4949314;28;100060;-71
2023/12/15 06:16:18;;;;;;;9.70;6.00;;;3.10;99.90;2.60;101827.00;;;;4949235;28;92911;-71
2023/12/15 06:18:44;;;;;;;8.20;4.83;;;2.90;99.90;2.60;101834.00;;;;4945616;28;95027;-73
2023/12/15 06:21:19;;;;;;;7.17;5.53;;;3.00;99.90;2.60;101837.00;;;;4948012;28;122761;-73
2023/12/15 06:23:45;;;;;;;6.70;4.13;;;2.90;99.90;2.50;101836.00;;;;4954598;28;97139;-73
2023/12/15 06:26:20;;;;;;;6.13;4.50;;;2.80;99.90;2.50;101850.00;;;;4951041;28;92274;-73
2023/12/15 06:28:46;;;;;;;6.03;4.40;;;2.80;99.90;2.50;101837.00;;;;4952150;28;93460;-73
2023/12/15 06:31:13;;;;;;;7.17;4.40;;;3.20;99.90;2.50;101852.00;;;;4944607;28;107212;-74
2023/12/15 06:33:39;;;;;;;8.47;5.63;;;2.80;99.90;2.50;101857.00;;;;4950707;28;94237;-74
2023/12/15 06:36:06;;;;;;;11.30;6.07;;;3.30;99.90;2.40;101855.00;;;;4953939;28;92872;-74
2023/12/15 06:38:32;;;;;;;10.87;5.83;;;2.70;99.90;2.40;101855.00;;;;4944954;28;112335;-74
2023/12/15 06:40:57;;;;;;;8.63;4.80;;;3.40;99.90;2.40;101862.00;;;;4948116;28;122711;-74
2023/12/15 06:43:23;;;;;;;9.13;6.30;;;4.30;99.90;2.40;101862.00;;;;4949378;28;92872;-73
2023/12/15 06:45:49;;;;;;;10.30;6.13;;;2.70;99.90;2.40;101859.00;;;;4946865;28;92875;-72
2023/12/15 06:48:15;;;;;;;7.13;5.43;;;2.70;99.90;2.30;101870.00;;;;4950331;28;122923;-71
2023/12/15 06:50:40;;;;;;;10.57;5.87;;;2.60;99.90;2.30;101877.00;;;;4943471;28;124018;-71
2023/12/15 06:53:06;;;;;;;8.63;5.13;;;2.60;99.90;2.20;101878.00;;;;4949063;28;110454;-70
2023/12/15 06:55:31;;;;;;;7.17;5.20;;;2.50;99.90;2.10;101889.00;;;;4945857;28;108158;-71
2023/12/15 06:57:57;;;;;;;9.83;5.83;;;2.50;99.90;2.00;101884.00;;;;4945475;28;122103;-70
2023/12/15 07:00:23;;;;;;;13.23;5.73;;;2.30;99.90;1.90;101897.00;;;;4949011;28;123255;-70
2023/12/15 07:02:48;;;;;;;7.50;5.23;;;2.30;99.90;1.90;101893.00;;;;4949138;28;109994;-70
2023/12/15 07:05:14;;;;;;;10.40;6.50;;;2.20;99.90;1.80;101901.00;;;;4945092;28;92815;-71
2023/12/15 07:07:40;;;;;;;8.73;5.77;;;2.10;99.90;1.80;101910.00;;;;4946502;28;123133;-69
2023/12/15 07:10:06;;;;;;;8.67;6.13;;;2.10;99.90;1.70;101913.00;;;;4946000;28;122051;-70
2023/12/15 07:12:32;;;;;;;10.03;5.83;;;2.10;99.90;1.60;101906.00;;;;4954167;28;92966;-72
2023/12/15 07:14:58;;;;;;;12.60;5.83;;;2.20;99.90;1.60;101919.00;;;;4957601;28;91955;-69
2023/12/15 07:17:23;;;;;;;9.43;5.70;;;1.90;99.90;1.50;101911.00;;;;4965666;28;123220;-69
2023/12/15 07:19:49;;;;;;;8.53;6.03;;;1.90;99.90;1.50;101915.00;;;;4953085;28;95832;-69
2023/12/15 07:22:15;;;;;;;10.73;6.27;;;1.90;99.90;1.40;101920.00;;;;4951311;28;110454;-69
2023/12/15 07:24:41;;;;;;;7.07;4.63;;;1.80;99.90;1.40;101933.00;;;;4954643;28;108284;-70
2023/12/15 07:27:07;;;;;;;6.73;5.27;;;1.80;99.90;1.40;101927.00;;;;4952267;28;93409;-70
2023/12/15 07:29:33;;;;;;;11.00;6.67;;;1.70;99.90;1.40;101927.00;;;;4951367;28;93563;-70
2023/12/15 07:31:58;;;;;;;9.53;6.73;;;1.70;99.90;1.40;101941.00;;;;4949991;28;110834;-70
2023/12/15 07:34:24;;;;;;;9.97;5.83;;;1.80;99.90;1.40;101947.00;;;;4950688;28;92965;-70
2023/12/15 07:36:50;;;;;;;6.50;5.63;;;1.80;99.90;1.40;101944.00;;;;4954597;28;94474;-71
2023/12/15 07:39:21;;;;;;;23.70;9.90;;;1.70;99.90;1.40;101943.00;;;;4960208;28;103040;-70
2023/12/15 07:41:48;;;;;;;20.87;10.87;;;1.70;99.90;1.40;101955.00;;;;4952620;28;93236;-70
2023/12/15 07:44:14;;;;;;;9.27;5.83;;;2.50;99.90;1.40;101952.00;;;;4957820;28;92787;-70
2023/12/15 07:46:41;;;;;;;7.50;5.60;;;1.70;99.90;1.40;101953.00;;;;4955296;28;106280;-70
2023/12/15 07:49:08;;;;;;;12.67;6.70;;;1.70;99.90;1.40;101962.00;;;;4959538;28;93851;-73
2023/12/15 07:51:34;;;;;;;8.53;6.93;;;1.70;99.90;1.40;101964.00;;;;4940556;28;93022;-73
2023/12/15 07:53:59;;;;;;;12.33;7.07;;;2.40;99.90;1.50;101964.00;;;;4955639;28;95675;-73
2023/12/15 07:56:27;;;;;;;12.20;7.17;;;2.50;99.90;1.50;101954.00;;;;4954219;28;123181;-73
2023/12/15 07:58:54;;;;;;;8.60;6.53;;;1.90;99.90;1.60;101973.00;;;;4942503;28;93249;-73
2023/12/15 08:01:22;;;;;;;13.50;8.27;;;1.80;99.90;1.60;101973.00;;;;4952532;28;92897;-73
2023/12/15 08:03:48;;;;;;;8.67;6.70;;;1.90;99.90;1.60;101978.00;;;;4949273;28;93626;-72
2023/12/15 08:06:15;;;;;;;10.00;6.07;;;1.90;99.90;1.60;101989.00;;;;4945796;28;92982;-72
2023/12/15 08:08:42;;;;;;;10.60;6.67;;;1.80;99.90;1.60;101989.00;;;;4955175;28;93292;-72
2023/12/15 08:11:09;;;;;;;11.47;7.20;;;1.90;99.90;1.70;101997.00;;;;4956105;28;94137;-72
2023/12/15 08:13:36;;;;;;;7.90;7.03;;;2.00;99.90;1.90;102008.00;;;;4954168;28;93194;-72
2023/12/15 08:16:03;;;;;;;12.70;8.17;;;2.10;99.90;2.10;102006.00;;;;4948202;28;113896;-72
2023/12/15 08:18:29;;;;;;;11.30;8.27;;;2.30;99.90;2.30;102005.00;;;;4951018;28;93887;-72
2023/12/15 08:20:55;;;;;;;14.00;9.50;;;2.50;99.90;2.40;101999.00;;;;4954782;28;93007;-72
2023/12/15 08:23:20;;;;;;;12.87;8.77;;;3.40;99.90;2.70;102010.00;;;;4950821;28;100276;-71
2023/12/15 08:25:46;;;;;;;15.53;10.13;;;2.90;99.90;2.90;102015.00;;;;4947572;28;93541;-71
2023/12/15 08:28:12;;;;;;;12.67;9.90;;;3.00;99.90;3.20;102017.00;;;;4951899;28;120971;-71
2023/12/15 08:30:39;;;;;;;12.17;7.80;;;3.30;99.90;3.50;102023.00;;;;4953429;28;93075;-70
2023/12/15 08:33:04;;;;;;;18.53;10.30;;;3.50;99.90;3.80;102028.00;;;;4951712;28;93266;-70
2023/12/15 08:35:30;;;;;;;15.23;7.70;;;3.80;99.90;3.90;102022.00;;;;4947952;28;123689;-70
2023/12/15 08:37:56;;;;;;;14.70;7.93;;;4.10;99.90;3.90;102023.00;;;;4953126;28;94243;-71
2023/12/15 08:40:23;;;;;;;10.70;8.00;;;4.20;99.90;3.80;102023.00;;;;4952093;28;92948;-72
2023/12/15 08:42:49;;;;;;;12.23;6.33;;;4.10;99.90;3.70;102033.00;;;;4958032;28;93070;-71
2023/12/15 08:45:15;;;;;;;11.27;6.10;;;4.00;99.90;3.60;102026.00;;;;4952013;28;100834;-70
2023/12/15 08:47:40;;;;;;;10.27;6.97;;;3.90;99.90;3.60;102027.00;;;;4948323;28;104786;-71
2023/12/15 08:50:06;;;;;;;11.77;7.43;;;3.90;99.90;3.60;102024.00;;;;4955907;28;110717;-71
2023/12/15 08:52:32;;;;;;;9.43;7.17;;;3.90;99.90;3.60;102032.00;;;;4949355;28;92299;-73
2023/12/15 08:54:58;;;;;;;8.30;5.97;;;4.30;99.90;3.50;102039.00;;;;4957771;28;93344;-73
2023/12/15 08:57:23;;;;;;;8.97;6.40;;;3.90;99.90;3.50;102033.00;;;;4947988;28;122246;-74
2023/12/15 08:59:49;;;;;;;11.57;6.93;;;3.70;99.90;3.50;102028.00;;;;4952723;28;109913;-73
2023/12/15 09:02:15;;;;;;;11.80;7.37;;;4.40;99.90;3.50;102034.00;;;;4946416;28;108531;-72
2023/12/15 09:04:41;;;;;;;10.60;7.03;;;3.70;99.90;3.40;102046.00;;;;4952271;28;93054;-71
2023/12/15 09:07:07;;;;;;;9.47;5.97;;;3.70;99.90;3.40;102046.00;;;;4948439;28;120950;-72
2023/12/15 09:09:38;;;;;;;10.50;6.93;;;3.60;99.90;3.30;102048.00;;;;4953828;28;92815;-71
2023/12/15 09:12:05;;;;;;;8.33;5.70;;;3.60;99.90;3.30;102051.00;;;;4951667;28;93087;-71
2023/12/15 09:14:32;;;;;;;10.57;7.23;;;3.60;99.90;3.30;102046.00;;;;4953627;28;94197;-72
2023/12/15 09:16:58;;;;;;;10.00;5.90;;;3.50;99.90;3.30;102043.00;;;;4954439;28;109022;-72
2023/12/15 09:19:25;;;;;;;10.90;6.47;;;3.50;99.90;3.30;102046.00;;;;4950843;28;93001;-72
2023/12/15 09:21:52;;;;;;;11.83;7.33;;;3.50;99.90;3.30;102044.00;;;;4951305;28;98720;-75
2023/12/15 09:24:18;;;;;;;14.60;7.73;;;4.00;99.90;3.30;102044.00;;;;4937751;28;96340;-72
2023/12/15 09:26:45;;;;;;;13.03;7.77;;;3.60;99.90;3.30;102026.00;;;;4954699;28;94284;-71
2023/12/15 09:29:12;;;;;;;6.87;6.13;;;3.50;99.90;3.30;102032.00;;;;4948943;28;93632;-71
2023/12/15 09:31:38;;;;;;;10.00;6.93;;;3.50;99.90;3.30;102024.00;;;;4942645;28;93083;-71
2023/12/15 09:34:04;;;;;;;13.90;9.20;;;3.50;99.90;3.60;102028.00;;;;4953564;28;122504;-71
2023/12/15 09:36:30;;;;;;;12.20;8.53;;;3.70;99.90;3.90;102039.00;;;;4950801;28;108720;-71
2023/12/15 09:38:56;;;;;;;16.03;8.90;;;4.00;99.90;4.30;102042.00;;;;4947401;28;111228;-71
2023/12/15 09:41:24;;;;;;;11.60;6.60;;;4.30;99.90;4.60;102042.00;;;;4948368;28;92594;-71
2023/12/15 09:43:50;;;;;;;10.37;6.23;;;5.40;99.90;5.00;102054.00;;;;4950540;28;121477;-74
2023/12/15 09:46:16;;;;;;;12.17;6.50;;;5.00;99.90;5.30;102042.00;;;;4949128;28;123132;-73
2023/12/15 09:48:44;;;;;;;9.17;6.33;;;5.30;99.90;5.60;102044.00;;;;4952987;28;93860;-73
2023/12/15 09:51:17;;;;;;;10.77;6.63;;;6.10;99.90;5.70;102059.00;;;;4949021;28;92683;-70
2023/12/15 09:53:46;;;;;;;14.50;6.43;;;6.10;99.90;5.80;102049.00;;;;4948810;28;94211;-71
2023/12/15 09:56:12;;;;;;;12.30;6.23;;;6.70;99.90;5.80;102064.00;;;;4951093;28;94219;-70
2023/12/15 09:58:38;;;;;;;8.83;6.10;;;6.50;99.90;5.70;102062.00;;;;4951137;28;92698;-69
2023/12/15 10:01:04;;;;;;;11.10;7.37;;;6.40;99.90;5.60;102076.00;;;;4954557;28;108878;-70
2023/12/15 10:03:31;;;;;;;12.97;7.87;;;5.80;99.90;5.60;102080.00;;;;4951998;28;92795;-71
2023/12/15 10:05:57;;;;;;;11.40;7.17;;;5.80;99.90;5.60;102082.00;;;;4954626;28;111854;-68
2023/12/15 10:08:24;;;;;;;14.23;7.33;;;5.80;99.90;5.60;102076.00;;;;4944119;28;109550;-69
2023/12/15 10:10:50;;;;;;;10.47;6.80;;;5.80;99.90;5.60;102068.00;;;;4947597;28;93087;-69
2023/12/15 10:13:17;;;;;;;11.23;6.33;;;5.80;99.90;5.50;102061.00;;;;4954307;28;94091;-69
2023/12/15 10:15:43;;;;;;;9.87;6.10;;;5.80;99.90;5.40;102069.00;;;;4963290;28;93772;-68
2023/12/15 10:18:09;;;;;;;8.63;6.50;;;5.70;99.90;5.30;102091.00;;;;4949353;28;93389;-69
2023/12/15 10:20:35;;;;;;;12.83;7.50;;;5.60;99.90;5.30;102092.00;;;;4948022;28;92668;-68
2023/12/15 10:23:03;;;;;;;17.03;6.83;;;5.50;99.90;5.20;102093.00;;;;4948885;28;93948;-70
2023/12/15 10:25:30;;;;;;;9.80;5.87;;;4.70;99.90;5.10;102083.00;;;;4956792;28;92768;-69
2023/12/15 10:27:56;;;;;;;9.30;7.20;;;4.70;99.90;5.00;102098.00;;;;4948895;28;92966;-70
2023/12/15 10:30:22;;;;;;;15.30;7.37;;;5.80;99.90;4.90;102081.00;;;;4947425;28;107959;-70
2023/12/15 10:32:48;;;;;;;15.23;6.47;;;5.20;99.90;4.90;102079.00;;;;4952092;28;121417;-68
2023/12/15 10:35:14;;;;;;;11.00;6.30;;;5.10;99.90;5.00;102086.00;;;;4951544;28;94320;-69
2023/12/15 10:37:41;;;;;;;15.77;7.53;;;5.20;99.90;5.10;102088.00;;;;4948945;28;111149;-70
2023/12/15 10:40:08;;;;;;;9.57;6.30;;;5.60;99.90;5.20;102095.00;;;;4945476;28;92937;-68
2023/12/15 10:42:35;;;;;;;7.97;7.17;;;5.30;99.90;5.20;102098.00;;;;4952967;28;93555;-70
2023/12/15 10:45:05;;;;;;;10.33;7.67;;;6.10;99.90;5.20;102104.00;;;;4950692;28;93783;-69
2023/12/15 10:47:39;;;;;;;9.67;7.30;;;5.40;99.90;5.20;102093.00;;;;4945735;28;93094;-69